Latest Weather Observations for Melbourne Airport

IDV60801

Issued at 12:31 pm EST Saturday 23 May 2015 (issued every 30 minutes, with the page automatically refreshed every 10 minutes)

About weather observations | Map of weather stations | Latest weather observations for VIC | Other Formats
Station Details ID: 086282 Name: MELBOURNE AIRPORT Lat: -37.67 Lon: 144.83 Height: 113.4 m
Data from the previous 72 hours. | See also: Recent months at Melbourne Airport
Date/Time
EST
Temp
°C
App
Temp
°C
Dew
Point
Rel
Hum
%
Delta-T
°C
Wind Press
QNH
hPa
Press
MSL
hPa
Rain
since 9 am
mm
Dir
 
Spd
km/h
Gust
km/h
Spd
kts
Gust
kts
23/12:00pm 12.5 8.9 5.1 60 3.4 S 13 19 7 10 1032.5 1032.6 0.0
23/11:30am 11.7 8.4 4.6 62 3.2 S 11 17 6 9 1033.0 1033.1 0.0
23/11:00am 11.3 7.6 4.6 63 3.0 S 13 19 7 10 1033.3 1033.4 0.0
23/10:30am 10.9 7.2 4.4 64 2.9 SSE 13 19 7 10 1033.5 1033.6 0.0
23/10:00am 10.9 7.2 4.7 65 2.8 SSW 13 19 7 10 1033.5 1033.6 0.0
23/09:30am 10.6 7.3 4.6 66 2.7 SSW 11 15 6 8 1033.5 1033.6 0.0
23/08:00am 9.3 6.9 5.3 76 1.8 SW 7 9 4 5 1032.9 1033.0 0.0
23/07:30am 9.2 6.1 5.4 77 1.7 WSW 11 13 6 7 1032.7 1032.8 0.0
23/07:00am 9.3 6.9 5.1 75 1.9 SSW 7 9 4 5 1032.5 1032.6 0.0
23/06:30am 9.3 8.2 5.3 76 1.8 CALM 0 0 0 0 1032.4 1032.5 0.0
23/05:30am 9.2 8.3 5.9 80 1.5 CALM 0 0 0 0 1032.0 1032.1 0.0
23/05:00am 9.3 8.4 6.0 80 1.5 CALM 0 0 0 0 1031.7 1031.8 0.0
23/04:30am 9.2 8.3 6.1 81 1.4 CALM 0 0 0 0 1031.6 1031.7 0.0
23/04:00am 9.3 8.5 6.5 83 1.3 CALM 0 0 0 0 1031.5 1031.6 0.0
23/03:30am 9.5 8.7 6.5 81 1.4 CALM 0 0 0 0 1031.6 1031.7 0.0
23/03:00am 9.7 8.9 6.7 81 1.4 CALM 0 0 0 0 1031.7 1031.8 0.0
23/02:30am 9.7 8.9 6.5 80 1.5 CALM 0 0 0 0 1031.9 1032.0 0.0
23/02:00am 9.7 8.9 6.5 80 1.5 CALM 0 0 0 0 1031.9 1032.0 0.0
23/01:30am 9.8 7.6 6.3 79 1.6 SW 7 9 4 5 1031.8 1031.9 0.0
23/01:00am 9.9 7.3 6.0 77 1.8 SW 9 11 5 6 1031.9 1032.0 0.0
23/12:30am 10.1 7.4 5.7 74 2.0 S 9 11 5 6 1032.1 1032.2 0.0
 
Date/Time
EST
Temp
°C
App
Temp
°C
Dew
Point
Rel
Hum
%
Delta-T
°C
Wind Press
QNH
hPa
Press
MSL
hPa
Rain
since 9 am
mm
Dir
 
Spd
km/h
Gust
km/h
Spd
kts
Gust
kts
22/11:30pm 10.5 7.8 5.5 71 2.3 SSW 9 13 5 7 1032.3 1032.4 0.0
22/11:00pm 10.6 7.4 5.3 70 2.4 S 11 15 6 8 1032.1 1032.2 0.0
22/10:30pm 10.4 7.3 5.6 72 2.2 SSW 11 15 6 8 1032.2 1032.3 0.0
22/10:00pm 10.5 6.6 5.2 70 2.4 SSW 15 19 8 10 1032.1 1032.2 0.0
22/09:30pm 10.5 7.1 5.7 72 2.2 S 13 15 7 8 1032.0 1032.1 0.0
22/09:00pm 10.8 6.7 4.6 65 2.8 S 15 22 8 12 1031.9 1032.0 0.0
22/08:30pm 10.6 6.7 5.3 70 2.4 S 15 24 8 13 1031.8 1031.9 0.0
22/08:00pm 10.7 6.7 4.7 66 2.7 S 15 20 8 11 1031.7 1031.8 0.0
22/07:30pm 10.8 6.3 4.3 64 2.9 S 17 28 9 15 1031.5 1031.6 0.0
22/07:00pm 11.0 5.8 5.3 68 2.6 S 22 28 12 15 1031.3 1031.4 0.0
22/06:30pm 11.2 6.6 5.6 68 2.6 S 19 30 10 16 1030.9 1031.0 0.0
22/05:30pm 11.2 6.7 4.3 62 3.1 S 17 20 9 11 1030.6 1030.7 0.0
22/05:00pm 11.2 6.4 4.5 63 3.0 S 19 26 10 14 1030.5 1030.6 0.0
22/04:30pm 11.4 5.7 4.8 64 3.0 S 24 32 13 17 1030.3 1030.3 0.0
22/04:00pm 11.6 6.4 5.5 66 2.8 S 22 30 12 16 1030.4 1030.4 0.0
22/03:30pm 12.0 6.5 6.0 66 2.8 S 24 32 13 17 1030.2 1030.2 0.0
22/03:00pm 12.4 6.3 6.5 67 2.8 S 28 33 15 18 1029.8 1029.8 0.0
22/02:30pm 12.2 6.5 6.7 69 2.6 S 26 35 14 19 1029.5 1029.5 0.0
22/02:00pm 12.7 7.3 7.8 72 2.4 S 26 32 14 17 1029.3 1029.3 0.0
22/01:30pm 12.6 7.2 7.9 73 2.3 SSE 26 33 14 18 1029.3 1029.3 0.0
22/01:00pm 13.6 7.7 7.7 67 2.9 SSE 28 35 15 19 1029.3 1029.3 0.0
22/12:30pm 13.3 8.4 7.1 66 3.0 S 22 28 12 15 1029.4 1029.4 0.0
22/12:00pm 12.7 7.3 6.4 65 3.0 SSE 24 32 13 17 1029.6 1029.6 0.0
22/11:30am 13.0 8.0 6.5 64 3.1 SSE 22 28 12 15 1029.7 1029.7 0.0
22/11:00am 12.8 7.8 6.3 64 3.1 SSE 22 30 12 16 1030.0 1030.0 0.0
22/10:30am 12.5 8.0 7.1 69 2.6 SSE 20 26 11 14 1029.8 1029.8 0.0
22/10:00am 12.0 9.2 8.6 80 1.7 S 13 19 7 10 1029.8 1029.8 0.0
22/09:30am 11.5 8.8 9.1 85 1.2 S 13 15 7 8 1029.8 1029.8 0.0
22/09:00am 10.7 8.0 9.1 90 0.8 SW 13 15 7 8 1029.6 1029.6 0.8
22/08:30am 10.0 7.6 8.8 92 0.6 S 11 15 6 8 1029.4 1029.4 0.8
22/08:00am 9.5 8.1 8.7 95 0.4 SW 6 7 3 4 1029.2 1029.2 0.8
22/07:30am 9.3 7.2 8.3 93 0.5 S 9 9 5 5 1028.8 1028.8 0.8
22/07:00am 9.5 7.5 8.5 93 0.5 S 9 11 5 6 1028.5 1028.5 0.8
22/06:30am 9.4 7.0 8.8 96 0.3 S 11 15 6 8 1028.2 1028.2 0.8
22/06:00am 9.5 7.2 8.9 96 0.3 S 11 15 6 8 1027.9 1027.9 0.8
22/05:30am 9.0 6.6 8.6 97 0.2 SSW 11 13 6 7 1027.6 1027.6 0.8
22/05:00am 8.4 6.3 8.2 99 0.1 SSW 9 11 5 6 1027.4 1027.4 0.8
22/04:30am 8.9 6.5 8.5 97 0.2 S 11 13 6 7 1027.0 1027.0 0.8
22/04:00am 9.2 6.4 8.4 95 0.4 SE 13 15 7 8 1026.7 1026.8 0.8
22/03:30am 9.7 7.0 9.1 96 0.3 SSE 13 15 7 8 1026.7 1026.8 0.8
22/03:00am 10.2 8.1 9.6 96 0.3 S 11 15 6 8 1026.8 1026.9 0.8
22/02:30am 10.3 8.2 9.7 96 0.3 SSW 11 13 6 7 1026.7 1026.8 0.8
22/02:00am 10.7 9.1 10.1 96 0.3 SW 9 13 5 7 1026.6 1026.7 0.8
22/01:30am 10.7 9.5 10.3 97 0.2 SW 7 11 4 6 1026.5 1026.6 0.8
22/01:00am 10.7 8.7 10.3 97 0.2 S 11 13 6 7 1026.3 1026.4 0.8
22/12:30am 10.5 8.5 10.3 99 0.1 SSW 11 15 6 8 1026.3 1026.4 0.8
22/12:12am 10.0 8.3 9.8 99 0.1 SSW 9 11 5 6 1026.3 1026.4 0.8
22/12:00am 10.0 7.5 9.8 99 0.1 SSW 13 15 7 8 1026.2 1026.3 0.8
 
Date/Time
EST
Temp
°C
App
Temp
°C
Dew
Point
Rel
Hum
%
Delta-T
°C
Wind Press
QNH
hPa
Press
MSL
hPa
Rain
since 9 am
mm
Dir
 
Spd
km/h
Gust
km/h
Spd
kts
Gust
kts
21/11:30pm 10.5 8.5 10.3 99 0.1 SW 11 15 6 8 1026.2 1026.3 0.8
21/11:00pm 10.4 8.8 10.2 99 0.1 SSW 9 11 5 6 1026.2 1026.3 0.8
21/10:44pm 10.4 8.7 10.0 97 0.2 S 9 13 5 7 1026.2 1026.3 0.8
21/10:30pm 10.4 8.7 10.0 97 0.2 S 9 13 5 7 1026.2 1026.3 0.8
21/10:00pm 10.2 9.4 9.8 97 0.2 SSW 4 9 2 5 1025.9 1026.0 0.8
21/09:30pm 10.4 9.3 9.8 96 0.3 SSW 6 11 3 6 1025.7 1025.8 0.8
21/09:00pm 10.3 8.2 9.7 96 0.3 W 11 15 6 8 1025.3 1025.4 0.8
21/08:30pm 10.2 8.1 9.8 97 0.2 W 11 15 6 8 1025.0 1025.1 0.6
21/08:00pm 10.1 8.0 9.7 97 0.2 W 11 15 6 8 1025.1 1025.2 0.6
21/07:30pm 10.3 8.6 9.7 96 0.3 W 9 11 5 6 1024.9 1025.0 0.6
21/07:00pm 10.3 7.8 9.7 96 0.3 WSW 13 15 7 8 1024.8 1024.9 0.4
21/06:44pm 10.3 7.8 9.7 96 0.3 WSW 13 17 7 9 1024.7 1024.8 0.4
21/06:30pm 10.2 8.1 9.6 96 0.3 SW 11 17 6 9 1024.7 1024.8 0.4
21/06:18pm 10.3 7.4 9.5 95 0.4 SW 15 20 8 11 1024.6 1024.7 0.4
21/06:10pm 10.6 7.2 9.2 91 0.7 SSW 17 22 9 12 1024.6 1024.7 0.4
21/06:00pm 11.0 7.1 8.8 86 1.1 SSW 19 26 10 14 1024.4 1024.5 0.4
21/05:30pm 11.3 8.4 8.0 80 1.6 SW 13 17 7 9 1024.0 1024.1 0.4
21/05:00pm 11.2 8.3 8.1 81 1.5 SSW 13 17 7 9 1023.9 1024.0 0.4
21/04:30pm 11.0 9.3 9.8 92 0.6 SSW 9 11 5 6 1023.8 1023.9 0.4
21/04:00pm 10.7 8.6 9.7 93 0.5 SSE 11 15 6 8 1023.7 1023.8 0.4
21/03:52pm 10.7 8.3 9.9 95 0.4 SSE 13 17 7 9 1023.7 1023.8 0.4
21/03:30pm 10.5 7.2 9.7 95 0.4 S 17 24 9 13 1023.6 1023.7 0.2
21/03:17pm 11.2 8.2 9.4 89 0.9 SSW 15 22 8 12 1023.5 1023.6 0.2
21/03:00pm 11.7 9.0 9.1 84 1.3 SSW 13 17 7 9 1023.3 1023.3 0.2
21/02:30pm 11.5 8.5 9.1 85 1.2 SSW 15 19 8 10 1023.2 1023.2 0.2
21/02:00pm 11.1 7.6 8.9 86 1.1 SW 17 20 9 11 1023.2 1023.2 0.2
21/01:30pm 10.8 7.3 8.8 87 1.0 S 17 26 9 14 1023.4 1023.5 0.2
21/01:00pm 11.3 8.4 8.0 80 1.6 SSW 13 19 7 10 1023.4 1023.5 0.2
21/12:30pm 11.2 9.1 8.4 83 1.4 SSW 9 11 5 6 1023.8 1023.9 0.2
21/12:00pm 10.9 9.2 8.2 83 1.3 S 7 9 4 5 1024.1 1024.2 0.2
21/11:30am 10.5 8.8 8.2 86 1.1 W 7 11 4 6 1024.3 1024.4 0.2
21/11:16am 10.2 8.5 8.4 89 0.9 SW 7 9 4 5 1024.5 1024.6 0.2
21/11:00am 9.7 7.7 8.5 92 0.6 SSW 9 13 5 7 1024.6 1024.7 0.2
21/10:46am 10.0 8.4 8.8 92 0.6 S 7 9 4 5 1024.5 1024.6 0.2
21/10:30am 9.7 8.3 8.7 93 0.5 SW 6 9 3 5 1024.4 1024.5 0.2
21/10:00am 9.2 7.6 8.2 93 0.5 SSE 6 7 3 4 1024.2 1024.3 0.0
21/09:30am 9.0 6.9 8.2 95 0.4 S 9 11 5 6 1024.1 1024.2 0.0
21/09:18am 9.0 6.5 8.2 95 0.4 SSW 11 13 6 7 1024.1 1024.2 0.0
21/09:00am 9.0 6.5 8.0 93 0.5 SSW 11 15 6 8 1023.9 1024.0 2.4
21/08:30am 8.8 6.6 8.0 95 0.4 SSW 9 13 5 7 1023.6 1023.7 2.0
21/08:00am 8.8 5.4 7.5 91 0.6 SW 15 28 8 15 1023.2 1023.2 2.0
21/07:53am 9.0 6.3 7.5 90 0.7 SSW 11 15 6 8 1023.1 1023.1 2.0
21/07:30am 8.9 7.0 7.6 91 0.6 SW 7 11 4 6 1022.7 1022.7 2.0
21/07:00am 8.8 6.6 7.8 93 0.5 SW 9 13 5 7 1022.5 1022.5 2.0
21/06:30am 8.8 6.2 7.8 93 0.5 SW 11 13 6 7 1022.2 1022.2 2.0
21/06:00am 8.9 5.9 7.6 91 0.6 SW 13 19 7 10 1021.9 1021.9 2.0
21/05:30am 8.9 6.4 8.1 95 0.4 SW 11 13 6 7 1021.7 1021.7 2.0
21/05:20am 8.9 6.4 8.1 95 0.4 SW 11 15 6 8 1021.6 1021.6 2.0
21/05:00am 9.0 6.8 8.0 93 0.5 SW 9 13 5 7 1021.3 1021.3 2.0
21/04:30am 9.1 5.7 7.8 92 0.6 WSW 15 19 8 10 1021.1 1021.1 2.0
21/04:00am 9.1 5.8 8.1 93 0.5 WSW 15 19 8 10 1020.8 1020.8 2.0
21/03:30am 9.2 5.6 8.2 93 0.5 WSW 17 19 9 10 1020.7 1020.7 2.0
21/03:00am 9.2 5.6 8.4 95 0.4 WSW 17 22 9 12 1020.8 1020.8 2.0
21/02:30am 9.2 5.7 8.6 96 0.3 SW 17 24 9 13 1020.7 1020.7 2.0
21/02:00am 9.2 5.1 8.6 96 0.3 SSW 20 30 11 16 1020.6 1020.6 2.0
21/01:30am 9.5 5.6 8.7 95 0.4 SSW 19 24 10 13 1020.4 1020.4 2.0
21/01:00am 9.5 4.3 8.9 96 0.3 SSW 26 37 14 20 1020.2 1020.2 2.0
21/12:40am 9.7 5.0 9.1 96 0.3 SSW 24 33 13 18 1020.1 1020.1 1.8
21/12:30am 9.7 5.3 9.1 96 0.3 SSW 22 28 12 15 1020.0 1020.0 1.8
21/12:19am 9.7 4.5 8.9 95 0.4 SSW 26 32 14 17 1020.0 1020.0 1.8
21/12:00am 9.8 5.5 9.4 97 0.2 SSW 22 32 12 17 1019.9 1019.9 1.8
 
Date/Time
EST
Temp
°C
App
Temp
°C
Dew
Point
Rel
Hum
%
Delta-T
°C
Wind Press
QNH
hPa
Press
MSL
hPa
Rain
since 9 am
mm
Dir
 
Spd
km/h
Gust
km/h
Spd
kts
Gust
kts
20/11:30pm 10.1 5.1 9.5 96 0.3 SW 26 37 14 20 1019.5 1019.5 1.6
20/11:00pm 10.2 5.5 9.4 95 0.4 SW 24 35 13 19 1019.2 1019.2 1.6
20/10:30pm 10.4 4.9 9.2 92 0.6 SW 28 35 15 19 1019.1 1019.1 1.6
20/10:08pm 10.3 4.9 9.5 95 0.4 SW 28 37 15 20 1018.9 1018.9 1.6
20/10:00pm 10.4 5.4 9.6 95 0.4 SW 26 35 14 19 1018.9 1018.9 1.6
20/09:30pm 10.6 4.8 9.6 93 0.5 SW 30 37 16 20 1018.5 1018.5 1.6
20/09:00pm 10.9 5.6 9.7 92 0.6 SW 28 41 15 22 1018.2 1018.2 1.6
20/08:52pm 10.9 5.7 10.1 95 0.4 SW 28 39 15 21 1018.1 1018.1 1.6
20/08:30pm 11.0 5.8 10.4 96 0.3 SW 28 39 15 21 1017.7 1017.8 1.6
20/08:00pm 11.1 6.0 10.7 97 0.2 WSW 28 39 15 21 1017.1 1017.2 1.6
20/07:30pm 11.3 6.2 10.7 96 0.3 WSW 28 33 15 18 1016.6 1016.7 1.4
20/07:00pm 11.4 7.1 10.6 95 0.4 W 24 32 13 17 1016.0 1016.0 1.2
20/06:30pm 11.4 7.1 10.6 95 0.4 W 24 30 13 16 1015.5 1015.5 1.2
20/06:14pm 11.9 7.0 10.0 88 1.0 W 26 33 14 18 1015.1 1015.1 0.6
20/06:00pm 12.3 7.4 9.8 85 1.3 W 26 37 14 20 1014.9 1014.9 0.6
20/05:30pm 12.7 7.3 9.6 81 1.6 WNW 28 37 15 20 1014.3 1014.3 0.6
20/05:00pm 13.0 6.8 9.5 79 1.8 W 32 41 17 22 1013.9 1013.9 0.6
20/04:30pm 13.6 8.4 10.1 79 1.8 W 28 37 15 20 1013.3 1013.3 0.6
20/04:00pm 13.4 8.4 10.9 85 1.3 W 28 37 15 20 1012.9 1012.9 0.6
20/03:30pm 13.5 9.3 11.2 86 1.2 WNW 24 39 13 21 1012.6 1012.6 0.4
20/03:00pm 15.3 11.6 10.0 70 2.8 NNW 20 28 11 15 1011.9 1011.9 0.0
20/02:30pm 16.1 10.3 8.0 58 4.1 NNW 28 37 15 20 1011.6 1011.6 0.0
20/02:00pm 17.5 12.0 7.7 52 5.0 NNW 26 33 14 18 1011.4 1011.4 0.0
20/01:30pm 17.4 12.6 7.5 52 5.0 NNW 22 35 12 19 1011.3 1011.3 0.0
20/01:00pm 17.1 11.2 7.4 53 4.9 N 28 39 15 21 1011.4 1011.4 0.0

Other Formats:

Comma delimited format used in spreadsheet applications
http://www.bom.gov.au/fwo/IDV60801/IDV60801.94866.axf

JavaScript Object Notation format (JSON) in row-major order
http://www.bom.gov.au/fwo/IDV60801/IDV60801.94866.json